createdAt,value
2022-08-02T00:00:40.566Z,13.13
2022-08-02T00:03:11.361Z,13.73
2022-08-02T00:05:39.055Z,15.38
2022-08-02T00:08:08.102Z,12.38
2022-08-02T00:10:36.167Z,13.02
2022-08-02T00:13:03.760Z,12.45
2022-08-02T00:15:31.608Z,14.77
2022-08-02T00:17:59.348Z,16.38
2022-08-02T00:20:26.811Z,15.60
2022-08-02T00:22:54.259Z,14.65
2022-08-02T00:25:22.090Z,14.57
2022-08-02T00:27:49.635Z,12.90
2022-08-02T00:30:17.140Z,13.93
2022-08-02T00:32:44.916Z,14.10
2022-08-02T00:35:12.670Z,17.60
2022-08-02T00:37:41.466Z,14.48
2022-08-02T00:40:12.395Z,16.48
2022-08-02T00:42:40.463Z,13.27
2022-08-02T00:45:08.730Z,13.75
2022-08-02T00:47:37.404Z,17.33
2022-08-02T00:50:05.939Z,16.45
2022-08-02T00:52:33.490Z,13.38
2022-08-02T00:55:01.208Z,17.42
2022-08-02T00:57:28.591Z,16.17
2022-08-02T00:59:56.063Z,17.42
2022-08-02T01:02:23.870Z,13.95
2022-08-02T01:04:51.293Z,19.20
2022-08-02T01:07:18.723Z,13.70
2022-08-02T01:09:46.913Z,15.88
2022-08-02T01:12:15.286Z,14.38
2022-08-02T01:14:44.435Z,13.25
2022-08-02T01:17:24.390Z,14.20
2022-08-02T01:20:26.324Z,14.93
2022-08-02T01:23:06.133Z,13.98
2022-08-02T01:25:39.570Z,15.65
2022-08-02T01:28:10.203Z,12.95
2022-08-02T01:30:39.110Z,15.18
2022-08-02T01:33:07.116Z,15.52
2022-08-02T01:35:47.436Z,18.17
2022-08-02T01:38:30.016Z,16.58
2022-08-02T01:40:59.379Z,14.02
2022-08-02T01:43:28.788Z,19.13
2022-08-02T01:45:57.053Z,17.40
2022-08-02T01:48:27.914Z,15.68
2022-08-02T01:50:56.196Z,17.02
2022-08-02T01:53:27.405Z,18.65
2022-08-02T01:55:57.540Z,14.82
2022-08-02T01:58:29.504Z,16.63
2022-08-02T02:00:58.762Z,13.45
2022-08-02T02:03:26.690Z,16.73
2022-08-02T02:05:57.662Z,14.93
2022-08-02T02:08:30.130Z,19.02
2022-08-02T02:12:06.295Z,18.67
2022-08-02T02:13:47.874Z,14.93
2022-08-02T02:16:16.189Z,16.92
2022-08-02T02:18:45.470Z,14.35
2022-08-02T02:21:14.138Z,18.00
2022-08-02T02:23:43.699Z,22.85
2022-08-02T02:26:14.339Z,15.40
2022-08-02T02:28:47.409Z,14.52
2022-08-02T02:31:18.243Z,22.77
2022-08-02T02:34:10.427Z,16.55
2022-08-02T02:36:40.970Z,15.95
2022-08-02T02:39:13.549Z,16.13
2022-08-02T02:41:43.130Z,16.95
2022-08-02T02:44:14.697Z,14.85
2022-08-02T02:46:42.173Z,13.82
2022-08-02T02:49:12.031Z,14.38
2022-08-02T02:51:42.829Z,17.48
2022-08-02T02:54:30.268Z,14.50
2022-08-02T02:57:01.141Z,17.73
2022-08-02T02:59:28.949Z,14.00
2022-08-02T03:01:58.041Z,14.85
2022-08-02T03:04:55.382Z,19.02
2022-08-02T03:07:17.010Z,20.83
2022-08-02T03:09:45.053Z,16.08
2022-08-02T03:12:15.533Z,20.73
2022-08-02T03:14:49.357Z,21.83
2022-08-02T03:17:16.940Z,19.15
2022-08-02T03:19:45.805Z,16.40
2022-08-02T03:22:14.074Z,16.25
2022-08-02T03:24:41.682Z,18.15
2022-08-02T03:27:09.031Z,21.77
2022-08-02T03:29:36.655Z,17.33
2022-08-02T03:32:04.704Z,22.73
2022-08-02T03:34:32.316Z,21.85
2022-08-02T03:37:00.509Z,23.95
2022-08-02T03:39:28.053Z,27.23
2022-08-02T03:41:55.740Z,22.20
2022-08-02T03:44:24.234Z,24.05
2022-08-02T03:46:52.383Z,23.88
2022-08-02T03:49:20.853Z,21.25
2022-08-02T03:51:48.705Z,20.55
2022-08-02T03:54:17.932Z,18.48
2022-08-02T03:56:45.798Z,19.48
2022-08-02T03:59:14.887Z,19.95
2022-08-02T04:01:42.843Z,16.95
2022-08-02T04:04:10.264Z,14.82
2022-08-02T04:06:39.982Z,16.50
2022-08-02T04:09:09.854Z,15.45
2022-08-02T04:11:38.150Z,16.40
2022-08-02T04:14:11.375Z,15.68
2022-08-02T04:19:49.739Z,12.15
2022-08-02T04:22:38.642Z,16.00
2022-08-02T04:25:09.518Z,15.55
2022-08-02T04:28:15.706Z,10.13
2022-08-02T04:30:33.898Z,11.48
2022-08-02T04:33:01.750Z,14.63
2022-08-02T04:35:29.274Z,12.18
2022-08-02T04:38:09.110Z,11.82
2022-08-02T04:40:38.914Z,15.00
2022-08-02T04:43:07.215Z,9.77
2022-08-02T04:45:34.736Z,10.02
2022-08-02T04:48:06.043Z,10.98
2022-08-02T04:50:34.915Z,9.65
2022-08-02T04:53:02.515Z,7.85
2022-08-02T04:55:30.270Z,10.23
2022-08-02T04:57:58.792Z,9.32
2022-08-02T05:00:28.199Z,8.20
2022-08-02T05:02:59.836Z,12.73
2022-08-02T05:05:27.735Z,12.82
2022-08-02T05:07:55.585Z,11.32
2022-08-02T05:10:23.250Z,7.13
2022-08-02T05:12:51.822Z,7.65
2022-08-02T05:15:20.781Z,10.15
2022-08-02T05:17:49.616Z,8.50
2022-08-02T05:20:18.385Z,8.93
2022-08-02T05:22:46.199Z,6.72
2022-08-02T05:25:13.882Z,7.68
2022-08-02T05:27:41.726Z,7.47
2022-08-02T05:30:10.202Z,9.25
2022-08-02T05:32:53.535Z,8.35
2022-08-02T05:35:23.385Z,5.63
2022-08-02T05:37:51.295Z,5.50
2022-08-02T05:40:25.670Z,6.30
2022-08-02T05:42:54.685Z,6.15
2022-08-02T05:45:23.179Z,5.82
2022-08-02T05:47:51.219Z,7.40
2022-08-02T05:50:19.570Z,5.18
2022-08-02T05:52:50.920Z,5.80
2022-08-02T05:55:22.964Z,4.75
2022-08-02T05:58:11.109Z,7.65
2022-08-02T06:00:40.878Z,6.43
2022-08-02T06:03:44.302Z,4.35
2022-08-02T06:06:14.631Z,8.48
2022-08-02T06:08:47.816Z,5.63
2022-08-02T06:11:18.824Z,5.57
2022-08-02T06:13:47.750Z,7.20
2022-08-02T06:16:15.730Z,3.72
2022-08-02T06:18:46.091Z,5.18
2022-08-02T06:22:32.596Z,7.93
2022-08-02T06:24:03.780Z,6.43
2022-08-02T06:26:32.494Z,4.90
2022-08-02T06:28:59.957Z,5.65
2022-08-02T06:31:27.480Z,8.57
2022-08-02T06:33:55.577Z,5.75
2022-08-02T06:36:46.685Z,4.82
2022-08-02T06:39:24.099Z,5.43
2022-08-02T06:41:52.819Z,6.00
2022-08-02T06:44:48.011Z,5.20
2022-08-02T06:47:13.497Z,3.25
2022-08-02T06:49:52.542Z,2.65
2022-08-02T06:52:28.457Z,8.32
2022-08-02T06:55:01.378Z,3.25
2022-08-02T06:57:29.716Z,2.57
2022-08-02T06:59:58.675Z,3.75
2022-08-02T07:02:25.970Z,3.45
2022-08-02T07:04:53.642Z,5.38
2022-08-02T07:07:22.633Z,4.00
2022-08-02T07:10:00.057Z,4.57
2022-08-02T07:12:32.343Z,3.60
2022-08-02T07:15:06.784Z,5.82
2022-08-02T07:17:37.109Z,5.97
2022-08-02T07:20:07.946Z,3.58
2022-08-02T07:22:37.996Z,4.63
2022-08-02T07:25:07.800Z,3.55
2022-08-02T07:27:36.908Z,5.03
2022-08-02T07:30:06.051Z,5.10
2022-08-02T07:32:34.210Z,4.30
2022-08-02T07:35:06.652Z,4.95
2022-08-02T07:37:53.417Z,3.78
2022-08-02T07:40:25.060Z,2.78
2022-08-02T07:42:57.991Z,2.35
2022-08-02T07:45:32.944Z,4.00
2022-08-02T07:48:03.961Z,6.38
2022-08-02T07:50:31.432Z,3.03
2022-08-02T07:53:01.444Z,3.63
2022-08-02T07:55:35.147Z,3.70
2022-08-02T07:58:12.014Z,5.88
2022-08-02T08:00:43.214Z,4.20
2022-08-02T08:03:11.128Z,4.43
2022-08-02T08:05:38.778Z,4.32
2022-08-02T08:08:06.775Z,4.18
2022-08-02T08:10:34.507Z,5.28
2022-08-02T08:13:02.184Z,3.53
2022-08-02T08:15:30.467Z,3.05
2022-08-02T08:17:57.996Z,4.85
2022-08-02T08:20:25.505Z,3.95
2022-08-02T08:22:53.562Z,3.70
2022-08-02T08:25:21.114Z,2.22
2022-08-02T08:27:52.324Z,5.88
2022-08-02T08:30:22.169Z,2.70
2022-08-02T08:32:49.793Z,5.40
2022-08-02T08:35:17.355Z,8.13
2022-08-02T08:37:45.136Z,2.92
2022-08-02T08:40:13.292Z,3.05
2022-08-02T08:42:47.536Z,5.85
2022-08-02T08:45:15.137Z,9.18
2022-08-02T08:47:43.083Z,3.42
2022-08-02T08:50:18.926Z,8.88
2022-08-02T08:53:05.151Z,5.43
2022-08-02T08:55:36.119Z,3.00
2022-08-02T08:58:05.605Z,5.75
2022-08-02T09:00:34.582Z,1.73
2022-08-02T09:03:04.548Z,3.35
2022-08-02T09:05:35.250Z,6.82
2022-08-02T09:08:04.035Z,6.28
2022-08-02T09:10:37.785Z,4.55
2022-08-02T09:13:38.625Z,6.35
2022-08-02T09:16:12.273Z,6.75
2022-08-02T09:18:46.432Z,3.95
2022-08-02T09:21:16.918Z,6.10
2022-08-02T09:23:48.218Z,3.20
2022-08-02T09:26:25.605Z,7.22
2022-08-02T09:29:01.921Z,3.63
2022-08-02T09:31:29.680Z,8.48
2022-08-02T09:34:00.134Z,6.25
2022-08-02T09:36:30.598Z,5.60
2022-08-02T09:39:03.817Z,3.95
2022-08-02T09:41:37.285Z,3.65
2022-08-02T09:44:07.158Z,5.07
2022-08-02T09:46:38.556Z,2.78
2022-08-02T09:49:20.250Z,2.75
2022-08-02T09:51:48.232Z,4.93
2022-08-02T09:54:25.964Z,4.40
2022-08-02T09:56:55.738Z,6.15
2022-08-02T09:59:25.244Z,2.70
2022-08-02T10:01:58.874Z,5.65
2022-08-02T10:04:33.755Z,3.28
2022-08-02T10:07:04.748Z,4.97
2022-08-02T10:09:33.399Z,4.97
2022-08-02T10:12:01.856Z,6.63
2022-08-02T10:14:31.254Z,7.78
2022-08-02T10:16:59.039Z,4.15
2022-08-02T10:20:01.899Z,3.53
2022-08-02T10:22:16.998Z,2.95
2022-08-02T10:24:48.151Z,5.18
2022-08-02T10:27:20.760Z,3.08
2022-08-02T10:29:55.012Z,4.07
2022-08-02T10:32:48.069Z,5.13
2022-08-02T10:35:25.334Z,6.40
2022-08-02T10:38:04.105Z,6.30
2022-08-02T10:40:51.270Z,4.38
2022-08-02T10:43:45.990Z,3.10
2022-08-02T10:46:35.906Z,4.97
2022-08-02T10:49:36.087Z,4.22
2022-08-02T10:52:15.351Z,4.93
2022-08-02T10:54:51.165Z,4.57
2022-08-02T10:57:29.893Z,5.65
2022-08-02T11:00:02.646Z,9.23
2022-08-02T11:02:53.095Z,6.03
2022-08-02T11:05:43.283Z,12.05
2022-08-02T11:08:25.210Z,4.65
2022-08-02T11:10:59.331Z,11.07
2022-08-02T11:13:27.265Z,6.07
2022-08-02T11:16:01.690Z,6.53
2022-08-02T11:18:50.774Z,4.25
2022-08-02T11:21:25.206Z,4.28
2022-08-02T11:23:53.866Z,5.53
2022-08-02T11:26:39.999Z,5.38
2022-08-02T11:29:07.792Z,5.65
2022-08-02T11:31:45.067Z,5.03
2022-08-02T11:34:36.441Z,5.47
2022-08-02T11:37:01.159Z,4.25
2022-08-02T11:39:28.694Z,9.80
2022-08-02T11:41:59.041Z,5.57
2022-08-02T11:44:29.142Z,7.30
2022-08-02T11:47:01.082Z,7.15
2022-08-02T11:49:29.445Z,5.40
2022-08-02T11:52:01.825Z,3.10
2022-08-02T11:57:20.769Z,4.82
2022-08-02T11:59:50.991Z,10.05
2022-08-02T12:02:21.405Z,4.28
2022-08-02T12:04:59.964Z,7.72
2022-08-02T12:07:34.588Z,4.90
2022-08-02T12:10:08.464Z,3.20
2022-08-02T12:12:56.973Z,3.85
2022-08-02T12:15:42.044Z,5.10
2022-08-02T12:18:29.994Z,5.20
2022-08-02T12:20:58.460Z,2.90
2022-08-02T12:23:26.372Z,5.60
2022-08-02T12:26:07.342Z,6.22
2022-08-02T12:28:39.426Z,7.00
2022-08-02T12:31:10.761Z,2.75
2022-08-02T12:33:54.725Z,4.70
2022-08-02T12:36:24.140Z,7.50
2022-08-02T12:38:55.839Z,7.72
2022-08-02T12:41:30.335Z,10.00
2022-08-02T12:44:00.775Z,6.00
2022-08-02T12:46:28.376Z,8.63
2022-08-02T12:49:16.879Z,2.83
2022-08-02T12:51:51.272Z,5.70
2022-08-02T12:54:31.022Z,8.93
2022-08-02T12:57:14.041Z,4.20
2022-08-02T12:59:43.225Z,6.00
2022-08-02T13:02:12.872Z,4.10
2022-08-02T13:04:42.198Z,4.75
2022-08-02T13:07:19.501Z,4.70
2022-08-02T13:09:48.628Z,3.38
2022-08-02T13:12:16.881Z,6.57
2022-08-02T13:14:44.687Z,4.85
2022-08-02T13:17:12.398Z,5.25
2022-08-02T13:19:41.112Z,4.32
2022-08-02T13:22:10.630Z,2.92
2022-08-02T13:24:54.956Z,6.38
2022-08-02T13:27:26.097Z,3.85
2022-08-02T13:29:55.144Z,3.72
2022-08-02T13:32:23.303Z,6.18
2022-08-02T13:34:51.676Z,3.17
2022-08-02T13:37:19.353Z,8.85
2022-08-02T13:40:05.657Z,8.20
2022-08-02T13:42:34.743Z,5.80
2022-08-02T13:45:12.450Z,4.40
2022-08-02T13:48:04.403Z,4.88
2022-08-02T13:50:33.226Z,10.07
2022-08-02T13:53:01.031Z,2.90
2022-08-02T13:55:28.946Z,4.88
2022-08-02T13:57:56.984Z,4.00
2022-08-02T14:00:35.305Z,8.45
2022-08-02T14:03:07.417Z,6.20
2022-08-02T14:05:47.486Z,4.18
2022-08-02T14:08:18.294Z,5.63
2022-08-02T14:10:48.005Z,5.75
2022-08-02T14:13:15.811Z,12.98
2022-08-02T14:15:43.530Z,6.00
2022-08-02T14:18:12.038Z,3.85
2022-08-02T14:20:39.457Z,6.68
2022-08-02T14:23:07.377Z,6.38
2022-08-02T14:25:35.289Z,5.82
2022-08-02T14:28:04.656Z,4.85
2022-08-02T14:30:32.174Z,6.25
2022-08-02T14:32:59.839Z,4.57
2022-08-02T14:35:27.480Z,5.75
2022-08-02T14:37:54.938Z,6.28
2022-08-02T14:40:30.851Z,7.32
2022-08-02T14:43:01.258Z,3.30
2022-08-02T14:45:40.553Z,3.90
2022-08-02T14:48:11.121Z,4.28
2022-08-02T14:50:38.932Z,7.63
2022-08-02T14:53:12.549Z,3.63
2022-08-02T14:55:42.133Z,3.13
2022-08-02T14:58:11.541Z,3.80
2022-08-02T15:00:41.215Z,8.75
2022-08-02T15:03:10.704Z,7.70
2022-08-02T15:05:39.421Z,6.95
2022-08-02T15:08:06.934Z,6.55
2022-08-02T15:10:34.728Z,4.68
2022-08-02T15:13:02.102Z,4.85
2022-08-02T15:15:29.801Z,4.07
2022-08-02T15:17:57.803Z,4.85
2022-08-02T15:20:27.929Z,4.20
2022-08-02T15:22:55.729Z,6.05
2022-08-02T15:25:23.922Z,3.22
2022-08-02T15:27:51.230Z,4.53
2022-08-02T15:30:19.510Z,6.45
2022-08-02T15:32:52.888Z,3.95
2022-08-02T15:35:21.704Z,4.15
2022-08-02T15:37:49.433Z,7.70
2022-08-02T15:40:17.071Z,19.45
2022-08-02T15:42:44.605Z,6.82
2022-08-02T15:45:14.688Z,6.65
2022-08-02T15:47:47.986Z,10.25
2022-08-02T15:50:19.023Z,3.85
2022-08-02T15:52:46.982Z,12.15
2022-08-02T15:55:14.660Z,4.68
2022-08-02T15:57:42.669Z,6.18
2022-08-02T16:00:18.117Z,5.47
2022-08-02T16:02:47.943Z,7.68
2022-08-02T16:05:18.212Z,17.23
2022-08-02T16:07:46.679Z,5.43
2022-08-02T16:10:15.932Z,14.07
2022-08-02T16:12:43.674Z,12.45
2022-08-02T16:15:12.901Z,10.48
2022-08-02T16:17:53.549Z,6.32
2022-08-02T16:20:23.580Z,11.07
2022-08-02T16:22:51.208Z,11.55
2022-08-02T16:25:18.693Z,4.07
2022-08-02T16:28:00.200Z,5.97
2022-08-02T16:30:34.021Z,10.25
2022-08-02T16:33:01.400Z,4.45
2022-08-02T16:35:29.131Z,5.32
2022-08-02T16:37:57.069Z,4.25
2022-08-02T16:40:25.222Z,5.70
2022-08-02T16:42:53.016Z,6.07
2022-08-02T16:45:21.467Z,7.90
2022-08-02T16:47:55.154Z,4.93
2022-08-02T16:50:27.119Z,6.07
2022-08-02T16:52:57.818Z,5.78
2022-08-02T16:55:26.099Z,15.20
2022-08-02T16:57:57.196Z,7.38
2022-08-02T17:00:24.856Z,4.63
2022-08-02T17:02:53.261Z,4.28
2022-08-02T17:05:21.231Z,6.13
2022-08-02T17:08:07.839Z,5.40
2022-08-02T17:10:37.652Z,6.25
2022-08-02T17:13:11.240Z,3.95
2022-08-02T17:16:07.747Z,4.03
2022-08-02T17:18:29.938Z,5.00
2022-08-02T17:20:58.220Z,6.50
2022-08-02T17:23:47.093Z,4.00
2022-08-02T17:26:14.170Z,5.28
2022-08-02T17:29:03.766Z,5.40
2022-08-02T17:31:37.127Z,5.25
2022-08-02T17:34:10.533Z,5.05
2022-08-02T17:36:38.985Z,4.38
2022-08-02T17:39:07.750Z,5.82
2022-08-02T17:41:37.726Z,8.23
2022-08-02T17:44:08.692Z,10.48
2022-08-02T17:46:37.110Z,11.70
2022-08-02T17:49:17.269Z,7.30
2022-08-02T17:52:16.116Z,8.40
2022-08-02T17:54:33.988Z,9.57
2022-08-02T17:57:01.913Z,8.32
2022-08-02T17:59:41.886Z,25.80
2022-08-02T18:02:11.337Z,7.55
2022-08-02T18:04:39.210Z,6.57
2022-08-02T18:07:09.772Z,27.42
2022-08-02T18:09:43.325Z,24.40
2022-08-02T18:12:14.878Z,12.85
2022-08-02T18:14:48.772Z,7.15
2022-08-02T18:17:17.093Z,11.45
2022-08-02T18:19:56.386Z,14.52
2022-08-02T18:22:27.959Z,24.63
2022-08-02T18:24:55.690Z,11.75
2022-08-02T18:27:23.289Z,8.80
2022-08-02T18:30:00.347Z,11.93
2022-08-02T18:33:54.805Z,13.32
2022-08-02T18:35:20.781Z,10.20
2022-08-02T18:37:56.845Z,8.18
2022-08-02T18:40:28.366Z,79.75
2022-08-02T18:42:58.509Z,10.38
2022-08-02T18:46:05.748Z,11.02
2022-08-02T18:48:17.527Z,15.43
2022-08-02T18:50:46.867Z,10.52
2022-08-02T18:53:16.856Z,7.97
2022-08-02T18:56:05.435Z,8.57
2022-08-02T18:58:33.478Z,10.15
2022-08-02T19:01:05.377Z,10.90
2022-08-02T19:03:49.161Z,9.15
2022-08-02T19:06:19.734Z,8.52
2022-08-02T19:09:05.197Z,8.15
2022-08-02T19:11:36.305Z,12.45
2022-08-02T19:14:05.253Z,8.82
2022-08-02T19:16:37.033Z,14.90
2022-08-02T19:19:07.867Z,14.73
2022-08-02T19:22:15.840Z,9.82
2022-08-02T19:24:23.543Z,9.10
2022-08-02T19:26:52.537Z,15.13
2022-08-02T19:29:43.454Z,9.05
2022-08-02T19:32:40.637Z,10.30
2022-08-02T19:34:56.350Z,11.75
2022-08-02T19:37:24.412Z,10.60
2022-08-02T19:39:59.550Z,18.42
2022-08-02T19:42:27.455Z,11.90
2022-08-02T19:44:55.332Z,19.00
2022-08-02T19:47:23.992Z,11.75
2022-08-02T19:49:53.088Z,11.80
2022-08-02T19:52:25.171Z,16.42
2022-08-02T19:54:55.574Z,14.50
2022-08-02T19:57:25.368Z,15.75
2022-08-02T19:59:54.175Z,13.38
2022-08-02T20:02:22.076Z,17.42
2022-08-02T20:10:31.666Z,15.23
2022-08-02T20:13:03.856Z,15.60
2022-08-02T20:15:56.008Z,17.95
2022-08-02T20:18:26.706Z,14.32
2022-08-02T20:20:54.736Z,19.77
2022-08-02T20:23:33.135Z,17.77
2022-08-02T20:26:02.289Z,13.95
2022-08-02T20:28:30.176Z,14.93
2022-08-02T20:30:57.726Z,15.65
2022-08-02T20:33:35.420Z,17.65
2022-08-02T20:36:23.271Z,12.93
2022-08-02T20:38:51.735Z,15.00
2022-08-02T20:41:21.610Z,13.63
2022-08-02T20:43:50.417Z,16.73
2022-08-02T20:46:18.057Z,13.90
2022-08-02T20:48:45.738Z,14.65
2022-08-02T20:51:14.758Z,19.27
2022-08-02T20:54:00.121Z,14.40
2022-08-02T20:56:33.605Z,13.23
2022-08-02T20:59:15.973Z,22.15
2022-08-02T21:01:56.961Z,12.55
2022-08-02T21:04:26.699Z,12.60
2022-08-02T21:06:56.171Z,12.98
2022-08-02T21:09:52.900Z,11.13
2022-08-02T21:12:30.233Z,14.68
2022-08-02T21:15:00.199Z,13.60
2022-08-02T21:17:43.186Z,16.30
2022-08-02T21:20:17.934Z,19.27
2022-08-02T21:22:55.894Z,14.05
2022-08-02T21:25:42.298Z,20.48
2022-08-02T21:28:17.341Z,12.73
2022-08-02T21:30:46.835Z,15.13
2022-08-02T21:33:23.106Z,14.38
2022-08-02T21:35:53.259Z,14.68
2022-08-02T21:38:35.273Z,12.85
2022-08-02T21:41:11.286Z,17.25
2022-08-02T21:43:40.561Z,15.15
2022-08-02T21:46:11.771Z,13.38
2022-08-02T21:48:42.556Z,12.48
2022-08-02T21:51:15.890Z,16.63
2022-08-02T21:54:18.111Z,17.30
2022-08-02T21:56:32.276Z,13.68
2022-08-02T21:59:00.086Z,12.23
2022-08-02T22:01:32.423Z,14.33
2022-08-02T22:03:59.999Z,14.30
2022-08-02T22:06:28.114Z,14.05
2022-08-02T22:08:56.099Z,19.90
2022-08-02T22:11:25.086Z,14.70
2022-08-02T22:13:55.281Z,15.10
2022-08-02T22:16:23.243Z,14.20
2022-08-02T22:18:54.323Z,16.50
2022-08-02T22:21:22.852Z,12.60
2022-08-02T22:23:52.159Z,11.27
2022-08-02T22:26:20.635Z,14.43
2022-08-02T22:28:52.113Z,14.40
2022-08-02T22:31:40.946Z,13.95
2022-08-02T22:34:26.514Z,17.67
2022-08-02T22:36:58.747Z,17.73
2022-08-02T22:39:28.596Z,12.82
2022-08-02T22:42:06.508Z,20.83
2022-08-02T22:44:36.085Z,16.30
2022-08-02T22:47:07.553Z,15.93
2022-08-02T22:49:51.929Z,14.60
2022-08-02T22:52:22.216Z,12.85
2022-08-02T22:54:50.877Z,12.50
2022-08-02T22:57:29.970Z,17.23
2022-08-02T22:58:54.484Z,15.35
2022-08-02T22:59:05.337Z,12.95
2022-08-02T23:00:00.404Z,16.75
2022-08-02T23:02:30.154Z,16.88
2022-08-02T23:04:58.170Z,20.38
2022-08-02T23:07:26.636Z,15.68
2022-08-02T23:09:55.574Z,21.92
2022-08-02T23:12:23.724Z,15.10
2022-08-02T23:14:52.871Z,16.25
2022-08-02T23:17:40.164Z,20.60
2022-08-02T23:20:16.877Z,18.17
2022-08-02T23:22:49.775Z,22.35
2022-08-02T23:25:19.636Z,17.25
2022-08-02T23:27:50.825Z,16.85
2022-08-02T23:30:20.031Z,23.50
2022-08-02T23:32:47.987Z,16.48
2022-08-02T23:35:16.906Z,16.92
2022-08-02T23:38:00.487Z,16.23
2022-08-02T23:40:39.843Z,20.52
2022-08-02T23:43:14.395Z,14.30
2022-08-02T23:45:45.312Z,15.82
2022-08-02T23:48:13.088Z,18.27
2022-08-02T23:50:40.541Z,18.27
2022-08-02T23:53:08.002Z,18.30
2022-08-02T23:55:35.636Z,15.18
2022-08-02T23:58:03.454Z,17.42
